Time;durP1;ratioP1;P1;durP2;ratioP2;P2;SDS_P1;SDS_P2;PMS_P1;PMS_P2;Temp;Humidity;BMP_temperature;BMP_pressure;BME280_temperature;BME280_humidity;BME280_pressure;Samples;Min_cycle;Max_cycle;Signal;HPM_P1;HPM_P2
2021/01/25 00:01:48;;;;;;;12.35;8.75;;;;;;;12.43;55.29;99533.00;1768336;80;21165;-77
2021/01/25 00:04:16;;;;;;;17.95;10.05;;;;;;;12.38;55.26;99526.86;1770177;80;21807;-78
2021/01/25 00:06:46;;;;;;;12.35;9.33;;;;;;;12.34;54.99;99520.21;1772622;80;21024;-77
2021/01/25 00:09:15;;;;;;;18.80;11.03;;;;;;;12.38;54.68;99511.27;1762476;80;21150;-77
2021/01/25 00:11:44;;;;;;;9.20;7.78;;;;;;;12.36;54.53;99495.36;1790401;80;21157;-78
2021/01/25 00:14:14;;;;;;;10.50;8.38;;;;;;;12.32;54.31;99490.05;1790217;80;21125;-76
2021/01/25 00:16:42;;;;;;;9.65;7.90;;;;;;;12.29;53.85;99489.59;1786157;80;21205;-75
2021/01/25 00:19:10;;;;;;;12.63;6.83;;;;;;;12.22;53.50;99490.89;1785951;80;21189;-77
2021/01/25 00:21:38;;;;;;;9.45;7.55;;;;;;;12.13;53.25;99496.91;1770298;80;21208;-78
2021/01/25 00:24:07;;;;;;;9.90;7.55;;;;;;;12.08;53.22;99490.42;1785275;80;21161;-79
2021/01/25 00:26:34;;;;;;;10.50;7.33;;;;;;;11.83;53.88;99492.14;1770460;80;21267;-78
2021/01/25 00:29:02;;;;;;;8.90;7.30;;;;;;;11.90;53.99;99479.64;1787193;80;21683;-77
2021/01/25 00:31:30;;;;;;;11.80;8.68;;;;;;;11.87;54.33;99475.16;1765755;80;21196;-78
2021/01/25 00:33:59;;;;;;;18.37;12.58;;;;;;;11.85;54.56;99475.84;1761617;81;21177;-77
2021/01/25 00:36:27;;;;;;;24.85;18.82;;;;;;;11.87;54.81;99480.02;1761529;81;21169;-78
2021/01/25 00:38:54;;;;;;;40.35;30.80;;;;;;;11.82;55.30;99477.55;1761624;81;21370;-78
2021/01/25 00:41:22;;;;;;;40.00;31.57;;;;;;;11.65;56.00;99472.41;1761560;81;21814;-77
2021/01/25 00:43:49;;;;;;;38.55;26.95;;;;;;;11.56;56.68;99470.86;1761564;81;21129;-77
2021/01/25 00:46:17;;;;;;;36.53;23.45;;;;;;;11.54;57.23;99472.09;1761648;81;21137;-76
2021/01/25 00:48:44;;;;;;;23.98;17.62;;;;;;;11.53;57.66;99464.52;1761560;81;21702;-78
2021/01/25 00:51:12;;;;;;;27.70;19.87;;;;;;;11.61;57.69;99465.76;1761674;81;21231;-79
2021/01/25 00:53:39;;;;;;;26.55;16.42;;;;;;;11.74;57.60;99469.62;1761720;81;21372;-76
2021/01/25 00:56:11;;;;;;;18.75;13.43;;;;;;;11.79;57.67;99465.34;1775385;79;21184;-76
2021/01/25 00:58:39;;;;;;;15.83;9.78;;;;;;;11.81;57.76;99458.42;1787903;80;21160;-78
2021/01/25 01:01:07;;;;;;;10.53;7.28;;;;;;;11.81;57.95;99455.75;1793330;80;21145;-76
2021/01/25 01:03:36;;;;;;;9.90;5.72;;;;;;;11.79;58.14;99459.97;1788961;80;21186;-78
2021/01/25 01:06:03;;;;;;;8.38;5.03;;;;;;;11.80;58.22;99460.28;1783846;80;21806;-77
2021/01/25 01:08:32;;;;;;;10.18;5.90;;;;;;;11.83;58.36;99468.51;1787826;80;21198;-78
2021/01/25 01:11:01;;;;;;;10.15;6.22;;;;;;;11.71;58.74;99474.01;1787747;80;21145;-76
2021/01/25 01:13:29;;;;;;;16.65;10.30;;;;;;;11.66;59.06;99479.43;1784669;80;21224;-78
2021/01/25 01:15:59;;;;;;;18.85;10.88;;;;;;;11.67;59.05;99472.21;1786702;79;21141;-78
2021/01/25 01:18:26;;;;;;;16.17;11.38;;;;;;;11.74;59.00;99471.79;1787623;80;22632;-76
2021/01/25 01:20:54;;;;;;;13.15;8.53;;;;;;;11.83;58.85;99470.67;1785578;80;21168;-77
2021/01/25 01:23:22;;;;;;;14.87;9.98;;;;;;;11.90;58.67;99478.30;1788774;80;21133;-79
2021/01/25 01:25:49;;;;;;;9.63;6.60;;;;;;;11.93;58.63;99473.05;1792853;80;21355;-78
2021/01/25 01:28:17;;;;;;;15.08;8.18;;;;;;;11.99;58.61;99482.17;1792830;80;21082;-75
2021/01/25 01:30:45;;;;;;;13.68;9.38;;;;;;;12.01;58.53;99483.66;1761714;81;21344;-79
2021/01/25 01:33:12;;;;;;;13.65;8.40;;;;;;;12.01;58.65;99482.32;1792951;80;21133;-76
2021/01/25 01:35:40;;;;;;;10.20;6.53;;;;;;;12.05;58.65;99482.77;1761795;81;21161;-78
2021/01/25 01:38:08;;;;;;;7.60;5.10;;;;;;;12.03;58.72;99482.94;1793019;80;21180;-79
2021/01/25 01:40:35;;;;;;;7.17;5.17;;;;;;;12.04;58.82;99482.46;1761714;81;21420;-77
2021/01/25 01:43:03;;;;;;;9.63;6.37;;;;;;;12.04;58.84;99482.46;1792401;80;21805;-75
2021/01/25 01:45:32;;;;;;;7.45;5.40;;;;;;;12.07;58.79;99487.42;1762248;81;21141;-77
2021/01/25 01:48:02;;;;;;;8.70;5.75;;;;;;;12.11;58.81;99488.19;1793512;80;21577;-75
2021/01/25 01:50:30;;;;;;;7.20;5.12;;;;;;;12.11;58.83;99490.87;1761612;81;21180;-79
2021/01/25 01:52:57;;;;;;;6.22;4.80;;;;;;;12.13;58.89;99492.05;1792351;80;21168;-75
2021/01/25 01:55:25;;;;;;;5.40;4.58;;;;;;;12.13;58.96;99491.53;1761325;81;21392;-78
2021/01/25 01:57:53;;;;;;;5.70;3.95;;;;;;;12.14;58.97;99485.13;1792977;80;21193;-75
2021/01/25 02:00:22;;;;;;;4.12;3.20;;;;;;;12.11;59.20;99488.19;1762473;81;21193;-75
2021/01/25 02:02:50;;;;;;;6.05;4.08;;;;;;;12.10;59.17;99491.91;1792815;80;21615;-74
2021/01/25 02:05:19;;;;;;;3.72;2.98;;;;;;;12.12;59.18;99494.39;1761870;81;21157;-77
2021/01/25 02:07:53;;;;;;;4.90;2.92;;;;;;;12.14;59.19;99495.88;1792486;80;21208;-78
2021/01/25 02:10:21;;;;;;;2.70;2.20;;;;;;;12.13;59.25;99499.59;1761727;81;21145;-77
2021/01/25 02:12:53;;;;;;;4.47;3.15;;;;;;;12.13;59.35;99500.93;1792315;79;21209;-79
2021/01/25 02:15:21;;;;;;;6.75;3.92;;;;;;;12.08;59.47;99506.05;1761697;81;21157;-76
2021/01/25 02:17:50;;;;;;;4.67;4.17;;;;;;;12.07;59.57;99509.73;1712000;80;21209;-78
2021/01/25 02:20:32;;;;;;;5.00;3.02;;;;;;;12.10;59.59;99504.50;1761537;81;21333;-76
2021/01/25 02:23:40;;;;;;;3.98;3.10;;;;;;;12.13;59.58;99507.64;1773386;80;21208;-77
2021/01/25 02:26:19;;;;;;;5.03;3.70;;;;;;;12.14;59.65;99503.92;1778865;80;21174;-77
2021/01/25 02:28:47;;;;;;;4.87;3.90;;;;;;;12.19;59.49;99506.86;1778657;80;21119;-78
2021/01/25 02:31:15;;;;;;;4.75;3.37;;;;;;;12.21;59.51;99513.89;1778706;80;21179;-76
2021/01/25 02:33:51;;;;;;;5.08;3.75;;;;;;;12.25;59.48;99513.83;1760870;80;21355;-77
2021/01/25 02:36:19;;;;;;;6.83;3.62;;;;;;;12.30;59.49;99506.02;1792590;80;21169;-77
2021/01/25 02:38:49;;;;;;;6.28;4.03;;;;;;;11.95;60.25;99501.05;1742132;81;21394;-79
2021/01/25 02:41:20;;;;;;;5.70;4.62;;;;;;;11.86;60.57;99514.58;1785165;79;21081;-77
2021/01/25 02:43:50;;;;;;;6.03;4.15;;;;;;;11.79;60.86;99509.61;1789213;80;21161;-75
2021/01/25 02:46:18;;;;;;;6.03;4.25;;;;;;;11.79;60.86;99512.29;1793041;79;22245;-77
2021/01/25 02:48:46;;;;;;;5.75;4.60;;;;;;;11.73;60.95;99512.23;1757078;80;21144;-76
2021/01/25 02:51:15;;;;;;;5.58;4.30;;;;;;;11.72;61.04;99518.11;1744321;80;21539;-76
2021/01/25 02:53:43;;;;;;;7.35;4.62;;;;;;;11.74;60.98;99515.22;1787316;79;21161;-75
2021/01/25 02:56:11;;;;;;;8.58;4.65;;;;;;;11.73;60.92;99513.56;1787244;80;21180;-79
2021/01/25 02:58:38;;;;;;;8.85;5.10;;;;;;;11.78;60.85;99521.36;1785090;80;21274;-76
2021/01/25 03:01:08;;;;;;;7.33;4.83;;;;;;;11.79;60.80;99509.61;1785465;80;21058;-76
2021/01/25 03:03:35;;;;;;;7.40;5.17;;;;;;;11.81;60.73;99510.75;1788239;80;21181;-77
2021/01/25 03:06:03;;;;;;;8.80;6.35;;;;;;;11.80;60.64;99506.41;1773056;80;21217;-77
2021/01/25 03:08:31;;;;;;;9.95;6.35;;;;;;;11.78;60.62;99507.13;1765075;80;21193;-79
2021/01/25 03:10:59;;;;;;;10.28;6.83;;;;;;;11.81;60.56;99506.24;1780111;79;21383;-76
2021/01/25 03:13:28;;;;;;;15.10;8.25;;;;;;;11.81;60.42;99502.22;1783854;80;21042;-76
2021/01/25 03:15:58;;;;;;;13.72;7.62;;;;;;;11.79;60.43;99503.41;1782296;80;21185;-76
2021/01/25 03:18:31;;;;;;;16.57;7.67;;;;;;;11.75;60.47;99506.15;1777457;80;21132;-76
2021/01/25 03:20:58;;;;;;;12.55;9.00;;;;;;;11.75;60.46;99500.78;1786449;80;21165;-78
2021/01/25 03:23:26;;;;;;;10.93;8.33;;;;;;;11.78;60.40;99501.75;1786619;80;21193;-75
2021/01/25 03:25:55;;;;;;;11.55;7.75;;;;;;;11.80;60.26;99503.73;1784407;80;21168;-76
2021/01/25 03:28:23;;;;;;;14.13;8.95;;;;;;;11.79;60.17;99496.70;1770934;80;21228;-76
2021/01/25 03:30:50;;;;;;;14.43;9.15;;;;;;;11.81;60.06;99503.56;1765426;80;21160;-76
2021/01/25 03:33:18;;;;;;;17.23;10.20;;;;;;;11.84;59.93;99497.83;1785981;80;21109;-77
2021/01/25 03:35:46;;;;;;;17.55;10.93;;;;;;;11.83;59.79;99499.36;1767413;80;21374;-77
2021/01/25 03:38:13;;;;;;;17.80;10.75;;;;;;;11.79;59.78;99496.19;1766923;80;21178;-76
2021/01/25 03:40:41;;;;;;;17.15;10.65;;;;;;;11.83;59.66;99498.02;1768312;80;21517;-76
2021/01/25 03:43:11;;;;;;;17.45;10.72;;;;;;;11.86;59.48;99503.84;1788483;80;21500;-76
2021/01/25 03:45:39;;;;;;;18.92;11.85;;;;;;;11.89;59.38;99494.57;1758648;80;21161;-78
2021/01/25 03:48:08;;;;;;;17.12;10.63;;;;;;;11.89;59.35;99495.91;1789878;80;22727;-77
2021/01/25 03:50:36;;;;;;;19.40;10.93;;;;;;;11.89;59.28;99497.25;1780421;80;21216;-75
2021/01/25 03:53:04;;;;;;;16.45;10.45;;;;;;;11.90;59.21;99493.57;1789059;80;21169;-77
2021/01/25 03:55:31;;;;;;;16.80;10.68;;;;;;;11.89;59.07;99501.28;1790564;80;21165;-78
2021/01/25 03:57:59;;;;;;;16.93;12.15;;;;;;;11.87;58.95;99493.94;1788510;80;21161;-78
2021/01/25 04:00:26;;;;;;;15.93;10.78;;;;;;;11.87;58.81;99506.02;1787906;80;21361;-76
2021/01/25 04:02:54;;;;;;;22.37;11.35;;;;;;;11.85;58.68;99502.67;1786943;80;21619;-76
2021/01/25 04:05:23;;;;;;;18.77;10.95;;;;;;;11.88;58.57;99500.97;1782704;80;21164;-77
2021/01/25 04:07:51;;;;;;;16.87;10.00;;;;;;;11.89;58.46;99507.98;1787314;80;21258;-75
2021/01/25 04:10:19;;;;;;;15.23;9.90;;;;;;;11.91;58.35;99508.13;1780620;80;21165;-76
2021/01/25 04:12:47;;;;;;;20.43;11.48;;;;;;;11.91;58.24;99516.70;1769754;80;21367;-78
2021/01/25 04:15:15;;;;;;;18.25;10.90;;;;;;;11.87;58.24;99509.53;1770427;80;21586;-78
2021/01/25 04:17:44;;;;;;;21.17;11.33;;;;;;;11.87;58.22;99503.34;1769004;80;21180;-75
2021/01/25 04:20:12;;;;;;;24.02;12.78;;;;;;;11.83;58.27;99501.53;1763808;80;21198;-76
2021/01/25 04:22:40;;;;;;;22.70;11.93;;;;;;;11.84;58.37;99502.36;1783051;80;21346;-75
2021/01/25 04:25:09;;;;;;;22.52;11.28;;;;;;;11.87;58.34;99496.63;1768738;79;21455;-77
2021/01/25 04:27:37;;;;;;;18.25;11.60;;;;;;;11.86;58.28;99494.97;1768449;79;21185;-75
2021/01/25 04:30:07;;;;;;;23.98;14.60;;;;;;;11.90;58.33;99490.89;1790647;80;21169;-76
2021/01/25 04:32:37;;;;;;;21.23;14.38;;;;;;;11.91;58.27;99492.55;1787049;80;21153;-76
2021/01/25 04:35:08;;;;;;;19.92;13.25;;;;;;;11.91;58.28;99492.55;1785706;80;21177;-76
2021/01/25 04:37:37;;;;;;;24.18;13.95;;;;;;;11.93;58.21;99485.13;1770340;80;21391;-76
2021/01/25 04:40:07;;;;;;;15.85;11.03;;;;;;;11.95;58.20;99488.97;1779854;79;21157;-75
2021/01/25 04:42:37;;;;;;;19.23;11.57;;;;;;;11.92;58.22;99485.63;1779692;80;21404;-79
2021/01/25 04:45:10;;;;;;;17.98;12.28;;;;;;;11.92;58.21;99488.83;1780839;80;21179;-74
2021/01/25 04:47:40;;;;;;;18.55;11.55;;;;;;;11.92;58.17;99495.03;1779604;80;21685;-74
2021/01/25 04:50:09;;;;;;;20.70;11.83;;;;;;;11.91;58.15;99498.73;1779611;80;21769;-77
2021/01/25 04:52:38;;;;;;;19.30;12.35;;;;;;;11.91;58.14;99499.25;1779831;80;21048;-78
2021/01/25 04:55:09;;;;;;;20.08;12.75;;;;;;;11.88;58.14;99500.45;1779971;80;21164;-78
2021/01/25 04:57:36;;;;;;;20.43;12.15;;;;;;;11.90;58.14;99502.97;1752240;80;21192;-77
2021/01/25 05:00:07;;;;;;;18.57;11.57;;;;;;;11.94;58.07;99508.24;1774226;77;21208;-77
2021/01/25 05:02:38;;;;;;;14.68;10.32;;;;;;;11.96;57.95;99508.08;1792028;79;21460;-77
2021/01/25 05:05:07;;;;;;;21.33;12.55;;;;;;;11.95;57.95;99507.25;1794015;79;21516;-79
2021/01/25 05:07:37;;;;;;;24.52;13.30;;;;;;;11.94;57.90;99510.92;1809076;79;21176;-78
2021/01/25 05:10:08;;;;;;;20.50;12.50;;;;;;;11.92;57.82;99504.42;1778994;80;21156;-78
2021/01/25 05:12:48;;;;;;;14.05;9.50;;;;;;;11.88;57.71;99506.33;1797942;79;21076;-78
2021/01/25 05:15:33;;;;;;;14.58;9.38;;;;;;;11.83;57.53;99506.90;1811971;79;21435;-75
2021/01/25 05:18:11;;;;;;;13.13;9.78;;;;;;;11.78;57.46;99511.14;1811184;79;21104;-74
2021/01/25 05:20:38;;;;;;;12.58;8.05;;;;;;;11.74;57.42;99517.39;1807572;79;21624;-77
2021/01/25 05:23:13;;;;;;;15.00;8.45;;;;;;;11.73;57.38;99513.56;1812293;79;21076;-77
2021/01/25 05:25:41;;;;;;;13.78;8.53;;;;;;;11.69;57.37;99517.95;1799928;77;21106;-77
2021/01/25 05:28:18;;;;;;;14.20;9.60;;;;;;;11.68;57.29;99516.30;1768452;80;21411;-75
2021/01/25 05:30:46;;;;;;;;;;;;;;;11.67;57.33;99525.38;1790495;80;21117;-76
2021/01/25 05:33:25;;;;;;;19.67;11.17;;;;;;;11.61;57.35;99514.04;1787693;80;20466;-76
2021/01/25 05:35:55;;;;;;;14.13;9.90;;;;;;;11.58;57.43;99521.63;1774170;78;21198;-76
2021/01/25 05:38:29;;;;;;;16.48;10.95;;;;;;;11.54;57.29;99523.88;1791781;78;21153;-78
2021/01/25 05:41:04;;;;;;;19.98;11.20;;;;;;;11.51;57.31;99518.05;1730564;79;22064;-77
2021/01/25 05:43:33;;;;;;;14.23;10.63;;;;;;;11.52;57.33;99524.55;1789616;78;21731;-76
2021/01/25 05:46:13;;;;;;;13.20;9.18;;;;;;;11.57;57.23;99528.02;1787180;80;21525;-75
2021/01/25 05:48:41;;;;;;;16.82;10.70;;;;;;;11.58;57.00;99525.16;1791783;80;21150;-76
2021/01/25 05:51:19;;;;;;;12.25;9.75;;;;;;;11.54;56.81;99527.89;1802994;78;21097;-77
2021/01/25 05:53:47;;;;;;;15.95;9.90;;;;;;;11.50;56.75;99521.23;1783468;79;21204;-77
2021/01/25 05:56:16;;;;;;;15.50;10.85;;;;;;;11.47;56.69;99528.30;1758862;80;21102;-75
2021/01/25 05:58:44;;;;;;;16.93;9.18;;;;;;;11.42;56.64;99518.66;1767817;80;21159;-77
2021/01/25 06:01:13;;;;;;;16.73;9.63;;;;;;;11.41;56.69;99525.87;1758036;80;21133;-77
2021/01/25 06:03:41;;;;;;;14.68;9.05;;;;;;;11.42;56.61;99527.52;1787605;79;21145;-73
2021/01/25 06:06:13;;;;;;;16.95;9.53;;;;;;;11.40;56.63;99529.58;1796111;79;22503;-77
2021/01/25 06:09:08;;;;;;;16.82;9.88;;;;;;;11.39;56.68;99528.40;1761212;79;21340;-75
2021/01/25 06:11:36;;;;;;;16.42;9.90;;;;;;;11.39;56.72;99525.72;1794046;77;21156;-76
2021/01/25 06:14:23;;;;;;;18.52;10.32;;;;;;;11.36;56.82;99515.39;1797298;77;21180;-76
2021/01/25 06:16:51;;;;;;;17.42;11.38;;;;;;;11.36;56.91;99517.55;1791297;77;21196;-77
2021/01/25 06:19:27;;;;;;;20.05;11.85;;;;;;;11.37;56.97;99520.55;1789385;79;21813;-76
2021/01/25 06:21:55;;;;;;;21.62;12.47;;;;;;;11.37;57.01;99523.23;1758475;77;21217;-77
2021/01/25 06:24:25;;;;;;;18.37;11.88;;;;;;;11.41;57.06;99531.74;1793756;77;21177;-77
2021/01/25 06:26:54;;;;;;;14.98;9.88;;;;;;;11.43;57.05;99538.56;1774587;79;21189;-77
2021/01/25 06:29:23;;;;;;;18.42;11.55;;;;;;;11.46;57.03;99541.91;1763209;80;21102;-77
2021/01/25 06:31:55;;;;;;;20.35;11.57;;;;;;;11.47;57.04;99543.56;1801476;77;22294;-77
2021/01/25 06:34:25;;;;;;;19.12;9.98;;;;;;;11.46;57.07;99546.76;1770341;80;21179;-77
2021/01/25 06:36:53;;;;;;;15.35;8.83;;;;;;;11.46;57.03;99548.61;1764573;80;21121;-77
2021/01/25 06:39:30;;;;;;;18.95;10.15;;;;;;;11.47;57.02;99544.39;1750671;80;21141;-76
2021/01/25 06:44:39;;;;;;;19.17;10.10;;;;;;;11.54;57.01;99535.94;1821355;76;23721;-79
2021/01/25 06:47:10;;;;;;;12.23;7.85;;;;;;;11.54;56.95;99534.60;1734294;80;21179;-77
2021/01/25 06:49:38;;;;;;;18.32;10.63;;;;;;;11.55;56.87;99536.25;1765001;78;21624;-76
2021/01/25 06:52:11;;;;;;;20.77;12.40;;;;;;;11.55;56.93;99538.94;1797100;77;21102;-75
2021/01/25 06:54:43;;;;;;;21.65;13.22;;;;;;;11.61;56.91;99537.34;1799435;77;21081;-77
2021/01/25 06:57:24;;;;;;;25.97;15.15;;;;;;;11.66;56.77;99536.27;1807320;77;21124;-75
2021/01/25 06:59:52;;;;;;;26.33;15.65;;;;;;;11.68;56.72;99536.42;1779896;79;21218;-77
2021/01/25 07:02:21;;;;;;;25.27;15.85;;;;;;;11.72;56.64;99536.02;1798709;77;21116;-77
2021/01/25 07:04:58;;;;;;;25.75;14.55;;;;;;;11.75;56.55;99531.63;1792738;77;21152;-76
2021/01/25 07:07:30;;;;;;;24.47;13.80;;;;;;;11.77;56.59;99528.27;1797887;77;21135;-76
2021/01/25 07:09:58;;;;;;;30.45;16.17;;;;;;;11.74;56.72;99521.93;1804036;77;21090;-77
2021/01/25 07:12:26;;;;;;;21.60;12.40;;;;;;;11.71;56.97;99519.61;1801632;77;21093;-76
2021/01/25 07:14:54;;;;;;;24.45;15.13;;;;;;;11.63;57.23;99524.09;1801052;77;21924;-77
2021/01/25 07:17:21;;;;;;;25.70;15.13;;;;;;;11.58;57.53;99518.45;1792783;79;21104;-76
2021/01/25 07:19:51;;;;;;;25.00;14.85;;;;;;;11.57;57.75;99523.48;1794185;77;21595;-78
2021/01/25 07:22:19;;;;;;;19.45;11.38;;;;;;;11.51;57.99;99517.53;1776314;77;21509;-78
2021/01/25 07:24:48;;;;;;;21.93;13.10;;;;;;;11.49;58.25;99520.92;1796348;79;21122;-76
2021/01/25 07:27:16;;;;;;;25.37;13.60;;;;;;;11.46;58.45;99507.05;1797507;77;21365;-76
2021/01/25 07:29:46;;;;;;;30.25;16.10;;;;;;;11.43;58.65;99516.28;1753094;79;21164;-77
2021/01/25 07:32:13;;;;;;;29.82;17.20;;;;;;;11.39;58.83;99521.70;1794505;77;21124;-76
2021/01/25 07:34:43;;;;;;;59.67;27.70;;;;;;;11.31;59.10;99507.05;1807089;77;21125;-76
2021/01/25 07:37:11;;;;;;;77.17;35.92;;;;;;;11.28;59.28;99518.98;1801926;78;21183;-78
2021/01/25 07:39:38;;;;;;;33.10;20.00;;;;;;;11.29;59.39;99513.94;1770128;79;22093;-76
2021/01/25 07:42:11;;;;;;;25.32;16.07;;;;;;;11.33;59.46;99509.05;1801158;78;22284;-79
2021/01/25 07:44:45;;;;;;;20.77;14.28;;;;;;;11.32;59.56;99512.75;1775021;79;21195;-77
2021/01/25 07:47:12;;;;;;;19.67;14.33;;;;;;;11.36;59.60;99512.19;1794731;77;21206;-77
2021/01/25 07:49:43;;;;;;;23.27;14.25;;;;;;;11.37;59.67;99521.06;1794142;77;21187;-76
2021/01/25 07:52:17;;;;;;;20.32;13.05;;;;;;;11.36;59.72;99511.37;1768174;79;21204;-77
2021/01/25 07:54:47;;;;;;;24.60;15.75;;;;;;;11.39;59.80;99504.27;1792275;77;21223;-77
2021/01/25 07:57:23;;;;;;;20.15;13.43;;;;;;;11.39;59.77;99512.31;1818434;77;21173;-78
2021/01/25 07:59:54;;;;;;;22.87;13.70;;;;;;;11.41;59.77;99510.30;1789747;79;21105;-75
2021/01/25 08:02:22;;;;;;;27.48;17.05;;;;;;;11.38;59.81;99503.95;1796618;79;21871;-77
2021/01/25 08:04:50;;;;;;;32.63;19.98;;;;;;;11.35;59.91;99504.31;1768712;79;21382;-75
2021/01/25 08:07:18;;;;;;;26.10;16.65;;;;;;;11.35;60.01;99500.30;1762480;79;21143;-76
2021/01/25 08:09:46;;;;;;;22.80;13.58;;;;;;;11.37;59.99;99500.95;1798398;77;21574;-76
2021/01/25 08:12:15;;;;;;;20.20;12.63;;;;;;;11.40;59.98;99504.10;1783264;79;21120;-80
2021/01/25 08:14:50;;;;;;;18.48;12.53;;;;;;;11.42;59.94;99502.05;1804059;77;21078;-75
2021/01/25 08:17:23;;;;;;;17.60;12.20;;;;;;;11.41;59.92;99496.38;1789801;78;21547;-77
2021/01/25 08:20:23;;;;;;;16.87;12.07;;;;;;;11.41;59.88;99500.39;1787375;78;21144;-78
2021/01/25 08:23:06;;;;;;;20.72;15.08;;;;;;;11.41;59.84;99501.73;1790407;77;21131;-77
2021/01/25 08:25:37;;;;;;;31.02;21.77;;;;;;;11.50;58.37;99493.08;1794251;77;21938;-78
2021/01/25 08:28:11;;;;;;;32.75;20.25;;;;;;;11.54;57.43;99484.98;1797092;77;21167;-80
2021/01/25 08:30:43;;;;;;;25.52;17.17;;;;;;;11.55;56.94;99481.27;1787767;79;21290;-76
2021/01/25 08:33:15;;;;;;;15.70;11.38;;;;;;;11.56;56.62;99471.38;1795288;77;21126;-77
2021/01/25 08:35:54;;;;;;;14.45;11.22;;;;;;;11.56;55.97;99473.55;1799622;79;21159;-76
2021/01/25 08:38:29;;;;;;;12.43;10.45;;;;;;;11.52;55.50;99476.28;1798067;77;21116;-78
2021/01/25 08:41:03;;;;;;;11.97;9.65;;;;;;;11.51;55.21;99473.28;1799863;77;21093;-77
2021/01/25 08:43:32;;;;;;;15.68;11.20;;;;;;;11.51;54.86;99472.45;1794598;77;21325;-77
2021/01/25 08:46:13;;;;;;;13.62;8.60;;;;;;;11.48;54.47;99476.33;1789271;78;21123;-77
2021/01/25 08:48:41;;;;;;;14.35;9.28;;;;;;;11.46;55.15;99470.34;1799900;77;21113;-76
2021/01/25 08:51:29;;;;;;;;;;;;;;;;;;;;;
2021/01/25 08:54:37;;;;;;;15.08;10.30;;;;;;;11.32;57.20;99469.34;1791052;77;21556;-77
2021/01/25 08:57:17;;;;;;;19.27;12.47;;;;;;;11.31;57.47;99464.15;1798691;77;22215;-79
2021/01/25 08:59:45;;;;;;;19.27;12.82;;;;;;;11.35;55.65;99456.06;1766036;79;21124;-77
2021/01/25 09:02:22;;;;;;;18.90;13.25;;;;;;;11.28;54.37;99457.33;1793083;77;21449;-77
2021/01/25 09:05:00;;;;;;;21.10;12.93;;;;;;;11.17;53.83;99450.61;1798319;77;21120;-77
2021/01/25 09:07:28;;;;;;;19.30;13.00;;;;;;;11.01;53.55;99450.80;1795133;77;21087;-80
2021/01/25 09:09:57;;;;;;;20.60;14.33;;;;;;;10.85;53.75;99437.57;1797770;77;21326;-77
2021/01/25 09:12:28;;;;;;;19.05;12.73;;;;;;;10.79;53.85;99440.48;1795905;77;21120;-78
2021/01/25 09:14:57;;;;;;;18.98;12.88;;;;;;;10.77;53.87;99432.33;1798133;77;21093;-80
2021/01/25 09:17:26;;;;;;;15.98;10.70;;;;;;;10.74;53.63;99431.35;1809681;77;21107;-77
2021/01/25 09:19:57;;;;;;;21.52;13.25;;;;;;;10.68;53.62;99422.72;1795659;77;21098;-80
2021/01/25 09:22:27;;;;;;;20.23;12.10;;;;;;;10.64;53.43;99424.42;1790553;79;21088;-78
2021/01/25 09:24:55;;;;;;;22.67;13.60;;;;;;;10.57;53.47;99423.48;1787809;77;21176;-79
2021/01/25 09:27:24;;;;;;;27.67;17.95;;;;;;;10.47;53.19;99426.94;1797198;77;21204;-79
2021/01/25 09:29:52;;;;;;;25.80;16.62;;;;;;;10.36;53.33;99419.37;1792813;77;21195;-78
2021/01/25 09:32:20;;;;;;;21.85;13.58;;;;;;;10.32;53.56;99428.77;1796338;77;21188;-79
2021/01/25 09:34:50;;;;;;;20.32;13.78;;;;;;;10.28;53.36;99422.11;1765733;79;21180;-78
2021/01/25 09:37:18;;;;;;;15.18;10.05;;;;;;;10.16;53.77;99413.14;1787014;79;21179;-79
2021/01/25 09:39:45;;;;;;;18.57;10.48;;;;;;;10.14;54.01;99416.52;1790920;79;21041;-79
2021/01/25 09:42:15;;;;;;;19.32;12.07;;;;;;;10.19;54.33;99420.50;1790626;77;21179;-78
2021/01/25 09:44:44;;;;;;;18.57;12.80;;;;;;;10.25;54.33;99428.64;1802372;79;21370;-80
2021/01/25 09:47:12;;;;;;;21.73;15.85;;;;;;;10.28;54.32;99406.05;1798927;77;22085;-79
2021/01/25 09:49:42;;;;;;;20.05;13.22;;;;;;;10.30;54.53;99395.98;1801299;79;21226;-80
2021/01/25 09:52:10;;;;;;;16.07;11.53;;;;;;;10.35;54.56;99390.91;1793984;79;21750;-80
2021/01/25 09:54:39;;;;;;;15.85;10.55;;;;;;;10.36;54.38;99395.28;1797403;78;21173;-79
2021/01/25 09:57:07;;;;;;;13.30;9.83;;;;;;;10.36;54.28;99392.59;1804025;77;21168;-79
2021/01/25 09:59:35;;;;;;;14.25;11.45;;;;;;;10.36;54.02;99383.23;1802019;78;21890;-79
2021/01/25 10:02:03;;;;;;;16.42;12.07;;;;;;;10.32;53.94;99376.06;1805399;77;21189;-76
2021/01/25 10:04:31;;;;;;;23.38;16.60;;;;;;;10.30;53.95;99377.25;1798399;77;21193;-77
2021/01/25 10:06:59;;;;;;;16.85;12.40;;;;;;;10.27;54.04;99377.63;1788161;78;21288;-77
2021/01/25 10:09:27;;;;;;;11.12;8.13;;;;;;;10.28;54.24;99367.25;1821628;77;21025;-77
2021/01/25 10:11:55;;;;;;;16.52;11.68;;;;;;;10.28;54.27;99372.09;1797413;77;21376;-78
2021/01/25 10:14:24;;;;;;;13.75;10.05;;;;;;;10.27;54.12;99373.63;1790963;77;21239;-78
2021/01/25 10:16:51;;;;;;;19.30;12.05;;;;;;;10.25;54.04;99359.58;1811673;77;21200;-79
2021/01/25 10:19:22;;;;;;;16.32;12.15;;;;;;;10.23;54.02;99356.23;1793913;79;21468;-79
2021/01/25 10:21:49;;;;;;;18.37;12.73;;;;;;;10.22;54.08;99351.87;1792918;77;22126;-77
2021/01/25 10:24:17;;;;;;;13.20;9.60;;;;;;;10.18;54.13;99347.41;1789865;77;21362;-76
2021/01/25 10:26:45;;;;;;;14.33;10.03;;;;;;;10.13;54.17;99345.28;1796233;78;21626;-76
2021/01/25 10:29:13;;;;;;;15.35;11.05;;;;;;;10.09;54.09;99346.66;1792786;79;21176;-77
2021/01/25 10:31:46;;;;;;;16.80;11.73;;;;;;;10.00;54.33;99346.41;1794656;77;21609;-78
2021/01/25 10:34:14;;;;;;;15.23;9.88;;;;;;;9.92;54.62;99346.48;1806296;77;21077;-77
2021/01/25 10:36:42;;;;;;;21.82;13.98;;;;;;;9.87;54.75;99331.48;1797150;77;21405;-75
2021/01/25 10:39:09;;;;;;;18.35;12.70;;;;;;;9.82;54.83;99328.53;1797071;77;21125;-76
2021/01/25 10:41:37;;;;;;;19.00;12.20;;;;;;;9.80;54.76;99299.27;1793452;79;21563;-77
2021/01/25 10:44:07;;;;;;;18.37;12.53;;;;;;;9.76;54.54;99292.63;1801772;77;21167;-77
2021/01/25 10:46:36;;;;;;;24.30;14.90;;;;;;;9.75;54.40;99298.16;1801255;77;21551;-80
2021/01/25 10:49:04;;;;;;;23.90;14.00;;;;;;;9.74;54.47;99293.83;1801642;77;21645;-78
2021/01/25 10:51:32;;;;;;;25.77;16.48;;;;;;;9.74;54.48;99300.52;1794428;79;21120;-79
2021/01/25 10:54:00;;;;;;;27.42;17.70;;;;;;;9.62;54.48;99302.27;1796727;79;21152;-80
2021/01/25 10:56:28;;;;;;;19.00;11.50;;;;;;;9.51;54.63;99298.70;1801585;77;21065;-80
2021/01/25 10:58:56;;;;;;;26.17;14.45;;;;;;;9.45;54.89;99296.77;1796381;79;21096;-81
2021/01/25 11:01:24;;;;;;;25.97;15.75;;;;;;;9.38;55.18;99281.10;1781308;77;21363;-81
2021/01/25 11:03:52;;;;;;;30.37;17.17;;;;;;;9.37;55.50;99279.45;1795512;77;21162;-80
2021/01/25 11:06:21;;;;;;;23.10;13.83;;;;;;;9.35;55.76;99276.10;1785508;80;21193;-76
2021/01/25 11:08:50;;;;;;;21.75;12.80;;;;;;;9.42;55.87;99271.72;1786358;78;21180;-79
2021/01/25 11:11:20;;;;;;;18.87;10.65;;;;;;;9.48;55.79;99269.65;1791245;79;21192;-82
2021/01/25 11:13:48;;;;;;;20.10;12.30;;;;;;;9.52;55.65;99256.25;1798001;78;21450;-79
2021/01/25 11:16:16;;;;;;;24.02;13.80;;;;;;;9.56;55.63;99261.56;1797793;79;21232;-79
2021/01/25 11:18:44;;;;;;;23.85;12.18;;;;;;;9.65;55.55;99255.64;1795723;78;21285;-79
2021/01/25 11:21:12;;;;;;;18.67;11.40;;;;;;;9.65;55.57;99251.12;1797474;79;22009;-79
2021/01/25 11:23:39;;;;;;;20.80;14.00;;;;;;;9.71;55.74;99242.88;1793884;77;21522;-79
2021/01/25 11:26:07;;;;;;;20.10;12.00;;;;;;;9.73;55.99;99240.86;1797785;79;21375;-80
2021/01/25 11:28:35;;;;;;;19.30;10.93;;;;;;;9.79;56.27;99236.11;1794364;77;21224;-80
2021/01/25 11:31:06;;;;;;;20.08;12.43;;;;;;;9.86;56.36;99229.54;1784670;80;21208;-79
2021/01/25 11:33:34;;;;;;;22.07;13.40;;;;;;;9.91;56.30;99229.30;1798595;77;21196;-80
2021/01/25 11:36:05;;;;;;;20.57;12.90;;;;;;;9.97;56.24;99219.70;1799037;77;21496;-81
2021/01/25 11:38:35;;;;;;;25.90;14.28;;;;;;;9.99;56.15;99220.37;1798747;77;21212;-81
2021/01/25 11:41:04;;;;;;;22.22;11.85;;;;;;;10.00;56.14;99211.32;1796836;77;21548;-80